sensor_id;sensor_type;location;lat;lon;timestamp;pressure;altitude;pressure_sealevel;temperature;humidity
56604;BME280;42486;47.478;19.036;2023-04-20T00:02:47;100122.84;;;8.52;100.00
56604;BME280;42486;47.478;19.036;2023-04-20T00:05:52;100113.56;;;8.48;100.00
56604;BME280;42486;47.478;19.036;2023-04-20T00:08:59;100116.91;;;8.50;100.00
56604;BME280;42486;47.478;19.036;2023-04-20T00:12:04;100109.75;;;8.41;100.00
56604;BME280;42486;47.478;19.036;2023-04-20T00:15:10;100120.53;;;8.35;100.00
56604;BME280;42486;47.478;19.036;2023-04-20T00:18:13;100115.53;;;8.32;100.00
56604;BME280;42486;47.478;19.036;2023-04-20T00:21:19;100105.84;;;8.21;100.00
56604;BME280;42486;47.478;19.036;2023-04-20T00:24:25;100108.25;;;8.24;100.00
56604;BME280;42486;47.478;19.036;2023-04-20T00:27:28;100111.06;;;8.21;100.00
56604;BME280;42486;47.478;19.036;2023-04-20T00:30:35;100109.28;;;8.22;100.00
56604;BME280;42486;47.478;19.036;2023-04-20T00:33:38;100112.84;;;8.33;100.00
56604;BME280;42486;47.478;19.036;2023-04-20T00:36:41;100103.38;;;8.20;100.00
56604;BME280;42486;47.478;19.036;2023-04-20T00:39:50;100110.09;;;8.35;100.00
56604;BME280;42486;47.478;19.036;2023-04-20T00:42:54;100110.09;;;8.35;100.00
56604;BME280;42486;47.478;19.036;2023-04-20T00:45:59;100102.50;;;8.32;100.00
56604;BME280;42486;47.478;19.036;2023-04-20T00:49:05;100111.78;;;8.36;100.00
56604;BME280;42486;47.478;19.036;2023-04-20T00:52:09;100106.69;;;8.34;100.00
56604;BME280;42486;47.478;19.036;2023-04-20T00:55:13;100095.88;;;8.28;100.00
56604;BME280;42486;47.478;19.036;2023-04-20T00:58:21;100096.09;;;8.25;100.00
56604;BME280;42486;47.478;19.036;2023-04-20T01:01:25;100097.81;;;8.24;100.00
56604;BME280;42486;47.478;19.036;2023-04-20T01:04:33;100102.84;;;8.27;100.00
56604;BME280;42486;47.478;19.036;2023-04-20T01:07:38;100098.88;;;8.22;100.00
56604;BME280;42486;47.478;19.036;2023-04-20T01:10:41;100097.22;;;8.21;100.00
56604;BME280;42486;47.478;19.036;2023-04-20T01:13:45;100087.84;;;8.18;100.00
56604;BME280;42486;47.478;19.036;2023-04-20T01:16:52;100087.22;;;8.14;100.00
56604;BME280;42486;47.478;19.036;2023-04-20T01:19:59;100097.00;;;8.11;100.00
56604;BME280;42486;47.478;19.036;2023-04-20T01:23:03;100086.91;;;8.06;100.00
56604;BME280;42486;47.478;19.036;2023-04-20T01:26:08;100091.09;;;8.09;100.00
56604;BME280;42486;47.478;19.036;2023-04-20T01:29:14;100092.53;;;8.13;100.00
56604;BME280;42486;47.478;19.036;2023-04-20T01:32:18;100086.78;;;8.08;100.00
56604;BME280;42486;47.478;19.036;2023-04-20T01:35:25;100087.97;;;8.04;100.00
56604;BME280;42486;47.478;19.036;2023-04-20T01:38:29;100090.94;;;7.98;100.00
56604;BME280;42486;47.478;19.036;2023-04-20T01:41:40;100088.56;;;7.94;100.00
56604;BME280;42486;47.478;19.036;2023-04-20T01:44:45;100097.31;;;7.93;100.00
56604;BME280;42486;47.478;19.036;2023-04-20T01:47:48;100098.44;;;7.89;100.00
56604;BME280;42486;47.478;19.036;2023-04-20T01:50:53;100100.94;;;7.91;100.00
56604;BME280;42486;47.478;19.036;2023-04-20T01:53:59;100087.31;;;7.87;100.00
56604;BME280;42486;47.478;19.036;2023-04-20T01:57:02;100096.97;;;7.72;100.00
56604;BME280;42486;47.478;19.036;2023-04-20T02:00:05;100096.44;;;7.67;100.00
56604;BME280;42486;47.478;19.036;2023-04-20T02:03:10;100091.22;;;7.67;100.00
56604;BME280;42486;47.478;19.036;2023-04-20T02:06:15;100088.91;;;7.63;100.00
56604;BME280;42486;47.478;19.036;2023-04-20T02:09:19;100095.69;;;7.65;100.00
56604;BME280;42486;47.478;19.036;2023-04-20T02:12:24;100092.66;;;7.59;100.00
56604;BME280;42486;47.478;19.036;2023-04-20T02:15:30;100099.47;;;7.47;100.00
56604;BME280;42486;47.478;19.036;2023-04-20T02:18:34;100101.47;;;7.43;100.00
56604;BME280;42486;47.478;19.036;2023-04-20T02:21:39;100095.91;;;7.35;100.00
56604;BME280;42486;47.478;19.036;2023-04-20T02:24:44;100103.19;;;7.30;100.00
56604;BME280;42486;47.478;19.036;2023-04-20T02:27:47;100102.97;;;7.33;100.00
56604;BME280;42486;47.478;19.036;2023-04-20T02:30:51;100096.41;;;7.27;100.00
56604;BME280;42486;47.478;19.036;2023-04-20T02:33:55;100095.88;;;7.22;100.00
56604;BME280;42486;47.478;19.036;2023-04-20T02:37:02;100093.47;;;7.19;100.00
56604;BME280;42486;47.478;19.036;2023-04-20T02:40:06;100095.44;;;7.16;100.00
56604;BME280;42486;47.478;19.036;2023-04-20T02:43:09;100092.44;;;7.22;100.00
56604;BME280;42486;47.478;19.036;2023-04-20T02:46:13;100098.25;;;7.25;100.00
56604;BME280;42486;47.478;19.036;2023-04-20T02:49:20;100101.19;;;7.21;100.00
56604;BME280;42486;47.478;19.036;2023-04-20T02:52:23;100100.31;;;7.20;100.00
56604;BME280;42486;47.478;19.036;2023-04-20T02:55:26;100104.63;;;7.07;100.00
56604;BME280;42486;47.478;19.036;2023-04-20T02:58:30;100113.50;;;7.17;100.00
56604;BME280;42486;47.478;19.036;2023-04-20T03:01:34;100107.69;;;7.14;100.00
56604;BME280;42486;47.478;19.036;2023-04-20T03:04:37;100110.84;;;7.04;100.00
56604;BME280;42486;47.478;19.036;2023-04-20T03:07:41;100108.44;;;7.01;100.00
56604;BME280;42486;47.478;19.036;2023-04-20T03:10:44;100113.00;;;6.98;100.00
56604;BME280;42486;47.478;19.036;2023-04-20T03:13:47;100116.00;;;6.92;100.00
56604;BME280;42486;47.478;19.036;2023-04-20T03:16:53;100109.69;;;6.81;100.00
56604;BME280;42486;47.478;19.036;2023-04-20T03:19:58;100114.34;;;6.76;100.00
56604;BME280;42486;47.478;19.036;2023-04-20T03:23:02;100114.63;;;6.72;100.00
56604;BME280;42486;47.478;19.036;2023-04-20T03:26:06;100111.28;;;6.70;100.00
56604;BME280;42486;47.478;19.036;2023-04-20T03:29:10;100106.81;;;6.72;100.00
56604;BME280;42486;47.478;19.036;2023-04-20T03:32:16;100108.59;;;6.71;100.00
56604;BME280;42486;47.478;19.036;2023-04-20T03:35:20;100111.28;;;6.84;100.00
56604;BME280;42486;47.478;19.036;2023-04-20T03:38:24;100116.66;;;6.81;100.00
56604;BME280;42486;47.478;19.036;2023-04-20T03:41:27;100109.03;;;6.92;100.00
56604;BME280;42486;47.478;19.036;2023-04-20T03:44:31;100106.72;;;6.88;100.00
56604;BME280;42486;47.478;19.036;2023-04-20T03:47:35;100112.47;;;6.93;100.00
56604;BME280;42486;47.478;19.036;2023-04-20T03:50:38;100110.84;;;7.04;100.00
56604;BME280;42486;47.478;19.036;2023-04-20T03:53:44;100117.34;;;7.12;100.00
56604;BME280;42486;47.478;19.036;2023-04-20T03:56:48;100121.38;;;7.30;100.00
56604;BME280;42486;47.478;19.036;2023-04-20T03:59:51;100123.81;;;7.46;100.00
56604;BME280;42486;47.478;19.036;2023-04-20T04:02:55;100122.19;;;7.58;100.00
56604;BME280;42486;47.478;19.036;2023-04-20T04:06:00;100129.81;;;7.73;100.00
56604;BME280;42486;47.478;19.036;2023-04-20T04:09:04;100126.41;;;7.86;100.00
56604;BME280;42486;47.478;19.036;2023-04-20T04:12:09;100124.59;;;8.01;100.00
56604;BME280;42486;47.478;19.036;2023-04-20T04:15:14;100126.66;;;8.21;100.00
56604;BME280;42486;47.478;19.036;2023-04-20T04:18:17;100127.12;;;8.41;100.00
56604;BME280;42486;47.478;19.036;2023-04-20T04:21:22;100131.41;;;8.54;100.00
56604;BME280;42486;47.478;19.036;2023-04-20T04:24:26;100135.75;;;8.67;100.00
56604;BME280;42486;47.478;19.036;2023-04-20T04:27:33;100140.75;;;8.70;100.00
56604;BME280;42486;47.478;19.036;2023-04-20T04:30:36;100139.44;;;8.88;100.00
56604;BME280;42486;47.478;19.036;2023-04-20T04:33:40;100136.50;;;9.06;100.00
56604;BME280;42486;47.478;19.036;2023-04-20T04:36:47;100134.88;;;9.29;100.00
56604;BME280;42486;47.478;19.036;2023-04-20T04:39:50;100138.97;;;9.44;100.00
56604;BME280;42486;47.478;19.036;2023-04-20T04:42:54;100134.38;;;9.47;100.00
56604;BME280;42486;47.478;19.036;2023-04-20T04:46:04;100138.91;;;9.57;100.00
56604;BME280;42486;47.478;19.036;2023-04-20T04:49:09;100138.91;;;9.57;100.00
56604;BME280;42486;47.478;19.036;2023-04-20T04:52:14;100139.97;;;9.54;100.00
56604;BME280;42486;47.478;19.036;2023-04-20T04:55:19;100140.69;;;9.56;100.00
56604;BME280;42486;47.478;19.036;2023-04-20T04:58:23;100144.16;;;9.68;100.00
56604;BME280;42486;47.478;19.036;2023-04-20T05:01:29;100147.22;;;9.86;100.00
56604;BME280;42486;47.478;19.036;2023-04-20T05:04:36;100143.50;;;10.12;100.00
56604;BME280;42486;47.478;19.036;2023-04-20T05:07:40;100148.47;;;10.96;100.00
56604;BME280;42486;47.478;19.036;2023-04-20T05:10:45;100162.87;;;12.82;90.62
56604;BME280;42486;47.478;19.036;2023-04-20T05:13:49;100164.06;;;14.64;77.07
56604;BME280;42486;47.478;19.036;2023-04-20T05:16:59;100170.62;;;15.97;69.76
56604;BME280;42486;47.478;19.036;2023-04-20T05:20:04;100173.44;;;16.21;64.63
56604;BME280;42486;47.478;19.036;2023-04-20T05:23:08;100177.16;;;15.57;67.37
56604;BME280;42486;47.478;19.036;2023-04-20T05:26:12;100184.78;;;16.40;65.82
56604;BME280;42486;47.478;19.036;2023-04-20T05:29:16;100189.16;;;16.83;62.87
56604;BME280;42486;47.478;19.036;2023-04-20T05:32:20;100190.44;;;17.05;61.28
56604;BME280;42486;47.478;19.036;2023-04-20T05:35:24;100188.34;;;16.83;62.22
56604;BME280;42486;47.478;19.036;2023-04-20T05:38:30;100182.22;;;16.04;65.71
56604;BME280;42486;47.478;19.036;2023-04-20T05:41:35;100184.53;;;15.26;68.42
56604;BME280;42486;47.478;19.036;2023-04-20T05:44:38;100183.34;;;15.20;69.69
56604;BME280;42486;47.478;19.036;2023-04-20T05:47:50;100181.09;;;16.06;66.78
56604;BME280;42486;47.478;19.036;2023-04-20T05:50:56;100191.56;;;16.68;61.67
56604;BME280;42486;47.478;19.036;2023-04-20T05:54:00;100196.09;;;18.26;55.83
56604;BME280;42486;47.478;19.036;2023-04-20T05:57:04;100199.03;;;18.81;52.04
56604;BME280;42486;47.478;19.036;2023-04-20T06:00:11;100200.03;;;18.63;50.84
56604;BME280;42486;47.478;19.036;2023-04-20T06:03:14;100206.69;;;18.51;49.75
56604;BME280;42486;47.478;19.036;2023-04-20T06:06:18;100211.19;;;19.92;46.52
56604;BME280;42486;47.478;19.036;2023-04-20T06:09:21;100215.28;;;18.29;51.17
56604;BME280;42486;47.478;19.036;2023-04-20T06:12:24;100212.09;;;16.83;55.08
56604;BME280;42486;47.478;19.036;2023-04-20T06:15:27;100208.69;;;17.33;54.20
56604;BME280;42486;47.478;19.036;2023-04-20T06:18:31;100214.91;;;18.64;50.85
56604;BME280;42486;47.478;19.036;2023-04-20T06:21:35;100208.62;;;18.65;50.36
56604;BME280;42486;47.478;19.036;2023-04-20T06:24:39;100219.91;;;18.02;51.47
56604;BME280;42486;47.478;19.036;2023-04-20T06:27:44;100211.75;;;16.51;55.38
56604;BME280;42486;47.478;19.036;2023-04-20T06:30:51;100215.38;;;17.70;52.58
56604;BME280;42486;47.478;19.036;2023-04-20T06:33:54;100218.75;;;17.96;51.14
56604;BME280;42486;47.478;19.036;2023-04-20T06:36:58;100211.19;;;16.74;54.57
56604;BME280;42486;47.478;19.036;2023-04-20T06:40:02;100224.84;;;17.30;53.93
56604;BME280;42486;47.478;19.036;2023-04-20T06:43:14;100221.56;;;17.36;52.30
56604;BME280;42486;47.478;19.036;2023-04-20T06:46:20;100217.94;;;16.24;55.93
56604;BME280;42486;47.478;19.036;2023-04-20T06:49:24;100220.06;;;16.65;55.40
56604;BME280;42486;47.478;19.036;2023-04-20T06:52:27;100212.44;;;16.36;56.79
56604;BME280;42486;47.478;19.036;2023-04-20T06:55:31;100222.44;;;15.88;58.43
56604;BME280;42486;47.478;19.036;2023-04-20T06:58:36;100221.38;;;18.54;50.86
56604;BME280;42486;47.478;19.036;2023-04-20T07:01:40;100223.91;;;19.82;46.31
56604;BME280;42486;47.478;19.036;2023-04-20T07:04:46;100226.72;;;19.09;47.04
56604;BME280;42486;47.478;19.036;2023-04-20T07:07:49;100228.94;;;20.52;43.05
56604;BME280;42486;47.478;19.036;2023-04-20T07:10:52;100236.28;;;22.68;38.21
56604;BME280;42486;47.478;19.036;2023-04-20T07:13:56;100232.09;;;22.24;39.76
56604;BME280;42486;47.478;19.036;2023-04-20T07:16:59;100246.31;;;24.17;35.31
56604;BME280;42486;47.478;19.036;2023-04-20T07:20:01;100245.69;;;24.88;34.29
56604;BME280;42486;47.478;19.036;2023-04-20T07:23:10;100231.28;;;22.86;35.26
56604;BME280;42486;47.478;19.036;2023-04-20T07:26:13;100240.44;;;23.05;35.34
56604;BME280;42486;47.478;19.036;2023-04-20T07:29:16;100238.03;;;22.82;35.33
56604;BME280;42486;47.478;19.036;2023-04-20T07:32:20;100237.28;;;24.65;32.67
56604;BME280;42486;47.478;19.036;2023-04-20T07:35:23;100246.56;;;24.15;32.82
56604;BME280;42486;47.478;19.036;2023-04-20T07:38:26;100252.81;;;25.66;32.41
56604;BME280;42486;47.478;19.036;2023-04-20T07:41:29;100247.69;;;25.64;30.40
56604;BME280;42486;47.478;19.036;2023-04-20T07:44:32;100249.63;;;25.89;29.98
56604;BME280;42486;47.478;19.036;2023-04-20T07:47:37;100238.62;;;22.50;34.55
56604;BME280;42486;47.478;19.036;2023-04-20T07:50:40;100243.41;;;23.85;32.76
56604;BME280;42486;47.478;19.036;2023-04-20T07:53:42;100248.91;;;23.70;32.85
56604;BME280;42486;47.478;19.036;2023-04-20T07:56:46;100244.88;;;24.14;31.80
56604;BME280;42486;47.478;19.036;2023-04-20T07:59:49;100246.78;;;24.47;31.85
56604;BME280;42486;47.478;19.036;2023-04-20T08:02:53;100252.41;;;25.11;31.11
56604;BME280;42486;47.478;19.036;2023-04-20T08:05:57;100242.41;;;23.25;32.50
56604;BME280;42486;47.478;19.036;2023-04-20T08:09:01;100225.41;;;19.99;38.06
56604;BME280;42486;47.478;19.036;2023-04-20T08:12:05;100232.97;;;19.17;40.78
56604;BME280;42486;47.478;19.036;2023-04-20T08:15:09;100228.34;;;18.30;41.47
56604;BME280;42486;47.478;19.036;2023-04-20T08:18:13;100225.00;;;17.87;44.19
56604;BME280;42486;47.478;19.036;2023-04-20T08:21:17;100231.09;;;16.86;46.21
56604;BME280;42486;47.478;19.036;2023-04-20T08:24:20;100221.59;;;16.49;47.84
56604;BME280;42486;47.478;19.036;2023-04-20T08:27:24;100216.81;;;16.27;47.97
56604;BME280;42486;47.478;19.036;2023-04-20T08:30:32;100221.25;;;16.44;49.89
56604;BME280;42486;47.478;19.036;2023-04-20T08:33:35;100220.34;;;16.80;47.62
56604;BME280;42486;47.478;19.036;2023-04-20T08:36:40;100216.16;;;16.51;48.39
56604;BME280;42486;47.478;19.036;2023-04-20T08:39:43;100222.84;;;16.63;48.74
56604;BME280;42486;47.478;19.036;2023-04-20T08:42:46;100225.81;;;16.86;48.16
56604;BME280;42486;47.478;19.036;2023-04-20T08:45:48;100221.62;;;17.10;47.12
56604;BME280;42486;47.478;19.036;2023-04-20T08:48:53;100212.69;;;16.77;48.50
56604;BME280;42486;47.478;19.036;2023-04-20T08:52:00;100213.84;;;17.00;48.82
56604;BME280;42486;47.478;19.036;2023-04-20T08:55:05;100213.44;;;16.87;48.21
56604;BME280;42486;47.478;19.036;2023-04-20T08:58:08;100221.88;;;17.33;47.75
56604;BME280;42486;47.478;19.036;2023-04-20T09:01:12;100217.97;;;17.45;47.96
56604;BME280;42486;47.478;19.036;2023-04-20T09:04:22;100222.88;;;17.24;45.11
56604;BME280;42486;47.478;19.036;2023-04-20T09:07:26;100219.66;;;17.71;44.18
56604;BME280;42486;47.478;19.036;2023-04-20T09:10:37;100217.59;;;17.99;41.94
56604;BME280;42486;47.478;19.036;2023-04-20T09:13:42;100217.88;;;17.71;43.07
56604;BME280;42486;47.478;19.036;2023-04-20T09:16:52;100217.09;;;17.28;45.23
56604;BME280;42486;47.478;19.036;2023-04-20T09:19:55;100216.66;;;17.57;44.68
56604;BME280;42486;47.478;19.036;2023-04-20T09:23:17;100215.84;;;17.57;44.85
56604;BME280;42486;47.478;19.036;2023-04-20T09:26:20;100213.63;;;17.87;42.86
56604;BME280;42486;47.478;19.036;2023-04-20T09:29:24;100215.44;;;18.02;43.02
56604;BME280;42486;47.478;19.036;2023-04-20T09:32:27;100213.47;;;17.80;43.40
56604;BME280;42486;47.478;19.036;2023-04-20T09:35:31;100211.78;;;17.79;42.24
56604;BME280;42486;47.478;19.036;2023-04-20T09:38:33;100206.69;;;18.02;43.13
56604;BME280;42486;47.478;19.036;2023-04-20T09:41:38;100202.22;;;18.02;40.11
56604;BME280;42486;47.478;19.036;2023-04-20T09:44:42;100214.31;;;18.38;39.57
56604;BME280;42486;47.478;19.036;2023-04-20T09:47:45;100202.03;;;18.37;40.36
56604;BME280;42486;47.478;19.036;2023-04-20T09:50:49;100206.84;;;18.33;40.77
56604;BME280;42486;47.478;19.036;2023-04-20T09:54:02;100207.69;;;18.34;40.32
56604;BME280;42486;47.478;19.036;2023-04-20T09:57:06;100200.41;;;18.44;39.48
56604;BME280;42486;47.478;19.036;2023-04-20T10:00:09;100206.16;;;18.56;40.31
56604;BME280;42486;47.478;19.036;2023-04-20T10:03:16;100204.34;;;18.64;41.58
56604;BME280;42486;47.478;19.036;2023-04-20T10:06:20;100204.09;;;18.90;40.56
56604;BME280;42486;47.478;19.036;2023-04-20T10:09:24;100201.00;;;18.70;40.84
56604;BME280;42486;47.478;19.036;2023-04-20T10:12:27;100189.34;;;17.99;42.33
56604;BME280;42486;47.478;19.036;2023-04-20T10:15:37;100192.63;;;18.34;42.77
56604;BME280;42486;47.478;19.036;2023-04-20T10:18:41;100190.47;;;18.46;42.46
56604;BME280;42486;47.478;19.036;2023-04-20T10:21:45;100185.47;;;18.67;42.04
56604;BME280;42486;47.478;19.036;2023-04-20T10:24:51;100179.47;;;18.74;42.31
56604;BME280;42486;47.478;19.036;2023-04-20T10:28:03;100175.72;;;18.60;42.69
56604;BME280;42486;47.478;19.036;2023-04-20T10:31:11;100185.09;;;18.87;42.29
56604;BME280;42486;47.478;19.036;2023-04-20T10:34:15;100178.50;;;18.66;42.82
56604;BME280;42486;47.478;19.036;2023-04-20T10:37:19;100180.25;;;18.99;43.64
56604;BME280;42486;47.478;19.036;2023-04-20T10:40:25;100180.00;;;19.17;41.66
56604;BME280;42486;47.478;19.036;2023-04-20T10:43:29;100177.22;;;19.41;41.80
56604;BME280;42486;47.478;19.036;2023-04-20T10:46:33;100176.13;;;19.58;42.07
56604;BME280;42486;47.478;19.036;2023-04-20T10:49:36;100168.50;;;19.32;40.87
56604;BME280;42486;47.478;19.036;2023-04-20T10:52:40;100160.75;;;19.23;41.26
56604;BME280;42486;47.478;19.036;2023-04-20T10:55:44;100160.75;;;19.54;41.11
56604;BME280;42486;47.478;19.036;2023-04-20T10:58:48;100164.84;;;19.88;41.00
56604;BME280;42486;47.478;19.036;2023-04-20T11:01:52;100167.03;;;19.84;39.14
56604;BME280;42486;47.478;19.036;2023-04-20T11:04:57;100163.59;;;19.52;39.68
56604;BME280;42486;47.478;19.036;2023-04-20T11:08:03;100159.19;;;19.68;40.24
56604;BME280;42486;47.478;19.036;2023-04-20T11:11:27;100147.03;;;19.96;39.21
56604;BME280;42486;47.478;19.036;2023-04-20T11:14:34;100151.44;;;19.66;39.49
56604;BME280;42486;47.478;19.036;2023-04-20T11:17:40;100147.78;;;19.59;40.53
56604;BME280;42486;47.478;19.036;2023-04-20T11:20:52;100149.44;;;19.37;40.12
56604;BME280;42486;47.478;19.036;2023-04-20T11:23:56;100139.75;;;19.75;40.10
56604;BME280;42486;47.478;19.036;2023-04-20T11:27:00;100139.88;;;19.82;39.44
56604;BME280;42486;47.478;19.036;2023-04-20T11:30:04;100138.69;;;20.22;39.08
56604;BME280;42486;47.478;19.036;2023-04-20T11:33:09;100139.91;;;19.97;37.66
56604;BME280;42486;47.478;19.036;2023-04-20T11:36:18;100144.50;;;20.03;38.02
56604;BME280;42486;47.478;19.036;2023-04-20T11:39:23;100132.19;;;19.64;39.29
56604;BME280;42486;47.478;19.036;2023-04-20T11:42:27;100140.84;;;20.04;38.04
56604;BME280;42486;47.478;19.036;2023-04-20T11:45:31;100139.22;;;20.18;38.33
56604;BME280;42486;47.478;19.036;2023-04-20T11:48:37;100129.03;;;20.59;37.05
56604;BME280;42486;47.478;19.036;2023-04-20T11:51:43;100137.06;;;20.51;36.73
56604;BME280;42486;47.478;19.036;2023-04-20T11:54:46;100128.75;;;20.01;36.61
56604;BME280;42486;47.478;19.036;2023-04-20T11:57:48;100134.00;;;20.39;36.63
56604;BME280;42486;47.478;19.036;2023-04-20T12:00:52;100125.16;;;19.94;36.65
56604;BME280;42486;47.478;19.036;2023-04-20T12:03:56;100130.97;;;20.13;35.74
56604;BME280;42486;47.478;19.036;2023-04-20T12:07:01;100134.09;;;20.31;36.34
56604;BME280;42486;47.478;19.036;2023-04-20T12:10:06;100130.75;;;20.37;35.63
56604;BME280;42486;47.478;19.036;2023-04-20T12:13:10;100127.88;;;20.39;35.46
56604;BME280;42486;47.478;19.036;2023-04-20T12:16:13;100129.66;;;20.76;34.46
56604;BME280;42486;47.478;19.036;2023-04-20T12:19:16;100119.66;;;20.93;33.39
56604;BME280;42486;47.478;19.036;2023-04-20T12:22:21;100115.00;;;20.36;33.75
56604;BME280;42486;47.478;19.036;2023-04-20T12:25:25;100116.03;;;20.64;33.38
56604;BME280;42486;47.478;19.036;2023-04-20T12:28:29;100119.75;;;20.85;33.88
56604;BME280;42486;47.478;19.036;2023-04-20T12:31:33;100117.12;;;20.55;33.69
56604;BME280;42486;47.478;19.036;2023-04-20T12:34:39;100112.03;;;20.90;33.12
56604;BME280;42486;47.478;19.036;2023-04-20T12:37:52;100120.22;;;20.88;32.78
56604;BME280;42486;47.478;19.036;2023-04-20T12:41:05;100108.94;;;20.72;33.21
56604;BME280;42486;47.478;19.036;2023-04-20T12:44:08;100111.16;;;20.83;33.96
56604;BME280;42486;47.478;19.036;2023-04-20T12:47:22;100102.00;;;20.85;33.58
56604;BME280;42486;47.478;19.036;2023-04-20T12:50:52;100101.53;;;20.82;33.41
56604;BME280;42486;47.478;19.036;2023-04-20T12:54:02;100100.97;;;20.86;33.57
56604;BME280;42486;47.478;19.036;2023-04-20T12:57:09;100110.06;;;20.62;33.29
56604;BME280;42486;47.478;19.036;2023-04-20T13:00:16;100096.47;;;20.87;32.63
56604;BME280;42486;47.478;19.036;2023-04-20T13:03:20;100093.16;;;21.00;33.40
56604;BME280;42486;47.478;19.036;2023-04-20T13:06:23;100098.75;;;20.90;32.35
56604;BME280;42486;47.478;19.036;2023-04-20T13:09:27;100085.34;;;20.47;33.87
56604;BME280;42486;47.478;19.036;2023-04-20T13:12:31;100079.97;;;20.55;32.22
56604;BME280;42486;47.478;19.036;2023-04-20T13:15:36;100080.28;;;20.08;32.25
56604;BME280;42486;47.478;19.036;2023-04-20T13:18:40;100074.81;;;20.09;32.35
56604;BME280;42486;47.478;19.036;2023-04-20T13:21:43;100080.00;;;20.77;31.37
56604;BME280;42486;47.478;19.036;2023-04-20T13:24:46;100072.81;;;20.56;30.30
56604;BME280;42486;47.478;19.036;2023-04-20T13:27:51;100075.66;;;21.05;31.12
56604;BME280;42486;47.478;19.036;2023-04-20T13:30:57;100077.44;;;21.20;31.09
56604;BME280;42486;47.478;19.036;2023-04-20T13:34:01;100077.63;;;21.18;32.56
56604;BME280;42486;47.478;19.036;2023-04-20T13:37:06;100070.47;;;21.19;31.03
56604;BME280;42486;47.478;19.036;2023-04-20T13:40:11;100080.56;;;20.87;31.24
56604;BME280;42486;47.478;19.036;2023-04-20T13:43:15;100079.25;;;20.61;31.47
56604;BME280;42486;47.478;19.036;2023-04-20T13:46:22;100076.94;;;20.58;33.10
56604;BME280;42486;47.478;19.036;2023-04-20T13:49:26;100074.34;;;20.50;34.06
56604;BME280;42486;47.478;19.036;2023-04-20T13:52:31;100071.78;;;20.42;34.40
56604;BME280;42486;47.478;19.036;2023-04-20T13:55:35;100069.06;;;20.06;34.11
56604;BME280;42486;47.478;19.036;2023-04-20T13:58:38;100060.13;;;19.69;33.75
56604;BME280;42486;47.478;19.036;2023-04-20T14:01:51;100062.81;;;19.98;32.88
56604;BME280;42486;47.478;19.036;2023-04-20T14:04:55;100053.84;;;20.29;33.09
56604;BME280;42486;47.478;19.036;2023-04-20T14:07:58;100050.13;;;20.38;32.77
56604;BME280;42486;47.478;19.036;2023-04-20T14:11:02;100045.53;;;20.47;33.70
56604;BME280;42486;47.478;19.036;2023-04-20T14:14:07;100057.09;;;20.54;33.11
56604;BME280;42486;47.478;19.036;2023-04-20T14:17:10;100045.62;;;19.94;33.52
56604;BME280;42486;47.478;19.036;2023-04-20T14:20:14;100053.44;;;20.11;34.29
56604;BME280;42486;47.478;19.036;2023-04-20T14:23:20;100044.53;;;20.18;34.12
56604;BME280;42486;47.478;19.036;2023-04-20T14:26:23;100044.72;;;20.32;33.99
56604;BME280;42486;47.478;19.036;2023-04-20T14:29:26;100035.75;;;20.33;34.09
56604;BME280;42486;47.478;19.036;2023-04-20T14:32:30;100033.47;;;20.30;33.49
56604;BME280;42486;47.478;19.036;2023-04-20T14:35:34;100029.34;;;20.12;34.97
56604;BME280;42486;47.478;19.036;2023-04-20T14:38:37;100029.09;;;19.92;33.44
56604;BME280;42486;47.478;19.036;2023-04-20T14:41:43;100031.09;;;19.52;34.33
56604;BME280;42486;47.478;19.036;2023-04-20T14:44:46;100020.34;;;19.31;33.84
56604;BME280;42486;47.478;19.036;2023-04-20T14:47:54;100026.25;;;19.33;34.21
56604;BME280;42486;47.478;19.036;2023-04-20T14:50:58;100032.16;;;19.43;35.31
56604;BME280;42486;47.478;19.036;2023-04-20T14:54:02;100023.97;;;19.53;34.42
56604;BME280;42486;47.478;19.036;2023-04-20T14:57:07;100023.22;;;19.44;34.52
56604;BME280;42486;47.478;19.036;2023-04-20T15:00:12;100020.50;;;19.52;33.83
56604;BME280;42486;47.478;19.036;2023-04-20T15:03:17;100020.53;;;19.67;34.94
56604;BME280;42486;47.478;19.036;2023-04-20T15:06:22;100017.50;;;19.70;34.08
56604;BME280;42486;47.478;19.036;2023-04-20T15:09:27;100019.75;;;19.58;34.35
56604;BME280;42486;47.478;19.036;2023-04-20T15:12:32;100011.41;;;19.70;34.12
56604;BME280;42486;47.478;19.036;2023-04-20T15:15:35;100019.91;;;19.80;34.55
56604;BME280;42486;47.478;19.036;2023-04-20T15:18:50;100021.22;;;19.61;33.95
56604;BME280;42486;47.478;19.036;2023-04-20T15:21:57;100019.72;;;19.67;34.57
56604;BME280;42486;47.478;19.036;2023-04-20T15:25:01;100018.62;;;19.76;34.64
56604;BME280;42486;47.478;19.036;2023-04-20T15:28:04;100017.06;;;19.67;34.33
56604;BME280;42486;47.478;19.036;2023-04-20T15:31:09;100015.94;;;19.61;35.08
56604;BME280;42486;47.478;19.036;2023-04-20T15:34:13;100016.66;;;19.55;34.92
56604;BME280;42486;47.478;19.036;2023-04-20T15:37:20;100024.41;;;19.56;34.99
56604;BME280;42486;47.478;19.036;2023-04-20T15:40:24;100021.00;;;19.86;36.13
56604;BME280;42486;47.478;19.036;2023-04-20T15:43:30;100020.66;;;20.04;34.65
56604;BME280;42486;47.478;19.036;2023-04-20T15:46:33;100019.22;;;20.01;35.49
56604;BME280;42486;47.478;19.036;2023-04-20T15:49:36;100017.56;;;20.15;34.67
56604;BME280;42486;47.478;19.036;2023-04-20T15:52:42;100017.28;;;20.24;35.07
56604;BME280;42486;47.478;19.036;2023-04-20T15:55:45;100024.78;;;20.21;34.91